sensor_id;sensor_type;location;lat;lon;timestamp;temperature;humidity
24035;DHT22;12242;50.952;4.678;2024-01-30T00:01:17;10.00;99.90
24035;DHT22;12242;50.952;4.678;2024-01-30T00:03:48;10.00;99.90
24035;DHT22;12242;50.952;4.678;2024-01-30T00:06:18;10.00;99.90
24035;DHT22;12242;50.952;4.678;2024-01-30T00:08:48;9.90;99.90
24035;DHT22;12242;50.952;4.678;2024-01-30T00:11:16;9.90;99.90
24035;DHT22;12242;50.952;4.678;2024-01-30T00:13:44;9.80;99.90
24035;DHT22;12242;50.952;4.678;2024-01-30T00:16:25;9.90;99.90
24035;DHT22;12242;50.952;4.678;2024-01-30T00:18:53;9.90;99.90
24035;DHT22;12242;50.952;4.678;2024-01-30T00:21:22;10.00;99.90
24035;DHT22;12242;50.952;4.678;2024-01-30T00:23:50;9.90;99.90
24035;DHT22;12242;50.952;4.678;2024-01-30T00:26:18;9.90;99.90
24035;DHT22;12242;50.952;4.678;2024-01-30T00:28:45;9.90;99.90
24035;DHT22;12242;50.952;4.678;2024-01-30T00:31:13;9.90;99.90
24035;DHT22;12242;50.952;4.678;2024-01-30T00:33:42;9.90;99.90
24035;DHT22;12242;50.952;4.678;2024-01-30T00:36:10;10.00;99.90
24035;DHT22;12242;50.952;4.678;2024-01-30T00:38:40;10.00;99.90
24035;DHT22;12242;50.952;4.678;2024-01-30T00:41:08;10.00;99.90
24035;DHT22;12242;50.952;4.678;2024-01-30T00:43:37;10.10;99.90
24035;DHT22;12242;50.952;4.678;2024-01-30T00:46:05;10.10;99.90
24035;DHT22;12242;50.952;4.678;2024-01-30T00:48:33;10.10;99.90
24035;DHT22;12242;50.952;4.678;2024-01-30T00:51:00;10.10;99.90
24035;DHT22;12242;50.952;4.678;2024-01-30T00:53:28;10.10;99.90
24035;DHT22;12242;50.952;4.678;2024-01-30T00:55:56;10.20;99.90
24035;DHT22;12242;50.952;4.678;2024-01-30T00:58:24;10.20;99.90
24035;DHT22;12242;50.952;4.678;2024-01-30T01:00:55;10.20;99.90
24035;DHT22;12242;50.952;4.678;2024-01-30T01:03:23;10.30;99.90
24035;DHT22;12242;50.952;4.678;2024-01-30T01:05:50;10.40;99.90
24035;DHT22;12242;50.952;4.678;2024-01-30T01:08:18;10.50;99.90
24035;DHT22;12242;50.952;4.678;2024-01-30T01:10:48;10.60;99.90
24035;DHT22;12242;50.952;4.678;2024-01-30T01:13:16;10.60;99.90
24035;DHT22;12242;50.952;4.678;2024-01-30T01:15:47;10.60;99.90
24035;DHT22;12242;50.952;4.678;2024-01-30T01:18:14;10.60;99.90
24035;DHT22;12242;50.952;4.678;2024-01-30T01:20:42;10.60;99.90
24035;DHT22;12242;50.952;4.678;2024-01-30T01:23:10;10.50;99.90
24035;DHT22;12242;50.952;4.678;2024-01-30T01:25:38;10.60;99.90
24035;DHT22;12242;50.952;4.678;2024-01-30T01:28:06;10.60;99.90
24035;DHT22;12242;50.952;4.678;2024-01-30T01:30:34;10.60;99.90
24035;DHT22;12242;50.952;4.678;2024-01-30T01:33:01;10.60;99.90
24035;DHT22;12242;50.952;4.678;2024-01-30T01:35:32;10.50;99.90
24035;DHT22;12242;50.952;4.678;2024-01-30T01:38:00;10.60;99.90
24035;DHT22;12242;50.952;4.678;2024-01-30T01:40:29;10.50;99.90
24035;DHT22;12242;50.952;4.678;2024-01-30T01:42:57;10.50;99.90
24035;DHT22;12242;50.952;4.678;2024-01-30T01:45:24;10.60;99.90
24035;DHT22;12242;50.952;4.678;2024-01-30T01:47:52;10.70;99.90
24035;DHT22;12242;50.952;4.678;2024-01-30T01:50:21;10.70;99.90
24035;DHT22;12242;50.952;4.678;2024-01-30T01:52:50;10.60;99.90
24035;DHT22;12242;50.952;4.678;2024-01-30T01:55:20;10.60;99.90
24035;DHT22;12242;50.952;4.678;2024-01-30T01:57:53;10.60;99.90
24035;DHT22;12242;50.952;4.678;2024-01-30T02:00:24;10.50;99.90
24035;DHT22;12242;50.952;4.678;2024-01-30T02:02:52;10.60;99.90
24035;DHT22;12242;50.952;4.678;2024-01-30T02:05:21;10.70;99.90
24035;DHT22;12242;50.952;4.678;2024-01-30T02:07:50;10.60;99.90
24035;DHT22;12242;50.952;4.678;2024-01-30T02:10:21;10.50;99.90
24035;DHT22;12242;50.952;4.678;2024-01-30T02:12:52;10.40;99.90
24035;DHT22;12242;50.952;4.678;2024-01-30T02:15:19;10.40;99.90
24035;DHT22;12242;50.952;4.678;2024-01-30T02:17:47;10.50;99.90
24035;DHT22;12242;50.952;4.678;2024-01-30T02:20:15;10.50;99.90
24035;DHT22;12242;50.952;4.678;2024-01-30T02:22:43;10.50;99.90
24035;DHT22;12242;50.952;4.678;2024-01-30T02:25:14;10.50;99.90
24035;DHT22;12242;50.952;4.678;2024-01-30T02:27:42;10.60;99.90
24035;DHT22;12242;50.952;4.678;2024-01-30T02:30:10;10.50;99.90
24035;DHT22;12242;50.952;4.678;2024-01-30T02:32:38;10.40;99.90
24035;DHT22;12242;50.952;4.678;2024-01-30T02:35:06;10.30;99.90
24035;DHT22;12242;50.952;4.678;2024-01-30T02:37:35;10.40;99.90
24035;DHT22;12242;50.952;4.678;2024-01-30T02:40:06;10.30;99.90
24035;DHT22;12242;50.952;4.678;2024-01-30T02:42:35;10.30;99.90
24035;DHT22;12242;50.952;4.678;2024-01-30T02:45:03;10.20;99.90
24035;DHT22;12242;50.952;4.678;2024-01-30T02:47:30;10.20;99.90
24035;DHT22;12242;50.952;4.678;2024-01-30T02:49:58;10.10;99.90
24035;DHT22;12242;50.952;4.678;2024-01-30T02:52:26;10.20;99.90
24035;DHT22;12242;50.952;4.678;2024-01-30T02:54:57;10.10;99.90
24035;DHT22;12242;50.952;4.678;2024-01-30T02:57:25;10.10;99.90
24035;DHT22;12242;50.952;4.678;2024-01-30T02:59:53;10.10;99.90
24035;DHT22;12242;50.952;4.678;2024-01-30T03:02:20;10.10;99.90
24035;DHT22;12242;50.952;4.678;2024-01-30T03:04:48;10.10;99.90
24035;DHT22;12242;50.952;4.678;2024-01-30T03:07:15;10.10;99.90
24035;DHT22;12242;50.952;4.678;2024-01-30T03:09:43;10.30;99.90
24035;DHT22;12242;50.952;4.678;2024-01-30T03:12:11;10.20;99.90
24035;DHT22;12242;50.952;4.678;2024-01-30T03:14:39;10.30;99.90
24035;DHT22;12242;50.952;4.678;2024-01-30T03:17:06;10.30;99.90
24035;DHT22;12242;50.952;4.678;2024-01-30T03:19:34;10.30;99.90
24035;DHT22;12242;50.952;4.678;2024-01-30T03:22:03;10.40;99.90
24035;DHT22;12242;50.952;4.678;2024-01-30T03:24:31;10.30;99.90
24035;DHT22;12242;50.952;4.678;2024-01-30T03:27:01;10.30;99.90
24035;DHT22;12242;50.952;4.678;2024-01-30T03:29:28;10.40;99.90
24035;DHT22;12242;50.952;4.678;2024-01-30T03:31:57;10.40;99.90
24035;DHT22;12242;50.952;4.678;2024-01-30T03:34:25;10.40;99.90
24035;DHT22;12242;50.952;4.678;2024-01-30T03:36:52;10.40;99.90
24035;DHT22;12242;50.952;4.678;2024-01-30T03:39:20;10.60;99.90
24035;DHT22;12242;50.952;4.678;2024-01-30T03:41:48;10.60;99.90
24035;DHT22;12242;50.952;4.678;2024-01-30T03:44:16;10.60;99.90
24035;DHT22;12242;50.952;4.678;2024-01-30T03:46:46;10.60;99.90
24035;DHT22;12242;50.952;4.678;2024-01-30T03:49:13;10.70;99.90
24035;DHT22;12242;50.952;4.678;2024-01-30T03:51:41;10.70;99.90
24035;DHT22;12242;50.952;4.678;2024-01-30T03:54:09;10.80;99.90
24035;DHT22;12242;50.952;4.678;2024-01-30T03:56:37;10.70;99.90
24035;DHT22;12242;50.952;4.678;2024-01-30T03:59:05;10.60;99.90
24035;DHT22;12242;50.952;4.678;2024-01-30T04:01:33;10.70;99.90
24035;DHT22;12242;50.952;4.678;2024-01-30T04:04:01;10.60;99.90
24035;DHT22;12242;50.952;4.678;2024-01-30T04:06:29;10.70;99.90
24035;DHT22;12242;50.952;4.678;2024-01-30T04:08:57;10.70;99.90
24035;DHT22;12242;50.952;4.678;2024-01-30T04:11:25;10.70;99.90
24035;DHT22;12242;50.952;4.678;2024-01-30T04:13:53;10.70;99.90
24035;DHT22;12242;50.952;4.678;2024-01-30T04:16:23;10.80;99.90
24035;DHT22;12242;50.952;4.678;2024-01-30T04:18:52;10.90;99.90
24035;DHT22;12242;50.952;4.678;2024-01-30T04:21:23;10.80;99.90
24035;DHT22;12242;50.952;4.678;2024-01-30T04:23:51;10.90;99.90
24035;DHT22;12242;50.952;4.678;2024-01-30T04:26:19;10.90;99.90
24035;DHT22;12242;50.952;4.678;2024-01-30T04:28:47;10.90;99.90
24035;DHT22;12242;50.952;4.678;2024-01-30T04:31:15;11.00;99.90
24035;DHT22;12242;50.952;4.678;2024-01-30T04:33:43;11.00;99.90
24035;DHT22;12242;50.952;4.678;2024-01-30T04:36:10;11.00;99.90
24035;DHT22;12242;50.952;4.678;2024-01-30T04:38:40;11.00;99.90
24035;DHT22;12242;50.952;4.678;2024-01-30T04:41:08;11.00;99.90
24035;DHT22;12242;50.952;4.678;2024-01-30T04:43:36;11.00;99.90
24035;DHT22;12242;50.952;4.678;2024-01-30T04:46:06;11.10;99.90
24035;DHT22;12242;50.952;4.678;2024-01-30T04:48:34;11.00;99.90
24035;DHT22;12242;50.952;4.678;2024-01-30T04:51:02;11.00;99.90
24035;DHT22;12242;50.952;4.678;2024-01-30T04:53:31;11.00;99.90
24035;DHT22;12242;50.952;4.678;2024-01-30T04:55:59;11.00;99.90
24035;DHT22;12242;50.952;4.678;2024-01-30T04:58:27;11.00;99.90
24035;DHT22;12242;50.952;4.678;2024-01-30T05:00:55;11.00;99.90
24035;DHT22;12242;50.952;4.678;2024-01-30T05:03:25;11.00;99.90
24035;DHT22;12242;50.952;4.678;2024-01-30T05:05:52;11.10;99.90
24035;DHT22;12242;50.952;4.678;2024-01-30T05:08:20;11.10;99.90
24035;DHT22;12242;50.952;4.678;2024-01-30T05:10:48;11.10;99.90
24035;DHT22;12242;50.952;4.678;2024-01-30T05:13:15;11.10;99.90
24035;DHT22;12242;50.952;4.678;2024-01-30T05:15:43;11.10;99.90
24035;DHT22;12242;50.952;4.678;2024-01-30T05:18:13;11.10;99.90
24035;DHT22;12242;50.952;4.678;2024-01-30T05:20:41;11.20;99.90
24035;DHT22;12242;50.952;4.678;2024-01-30T05:23:09;11.20;99.90
24035;DHT22;12242;50.952;4.678;2024-01-30T05:25:36;11.10;99.90
24035;DHT22;12242;50.952;4.678;2024-01-30T05:28:05;11.10;99.90
24035;DHT22;12242;50.952;4.678;2024-01-30T05:30:32;11.10;99.90
24035;DHT22;12242;50.952;4.678;2024-01-30T05:33:00;11.10;99.90
24035;DHT22;12242;50.952;4.678;2024-01-30T05:35:28;11.10;99.90
24035;DHT22;12242;50.952;4.678;2024-01-30T05:37:55;11.10;99.90
24035;DHT22;12242;50.952;4.678;2024-01-30T05:40:23;11.10;99.90
24035;DHT22;12242;50.952;4.678;2024-01-30T05:42:51;11.10;99.90
24035;DHT22;12242;50.952;4.678;2024-01-30T05:45:18;11.10;99.90
24035;DHT22;12242;50.952;4.678;2024-01-30T05:47:46;11.20;99.90
24035;DHT22;12242;50.952;4.678;2024-01-30T05:50:14;11.30;99.90
24035;DHT22;12242;50.952;4.678;2024-01-30T05:52:44;11.20;99.90
24035;DHT22;12242;50.952;4.678;2024-01-30T05:55:12;11.20;99.90
24035;DHT22;12242;50.952;4.678;2024-01-30T05:57:40;11.10;99.90
24035;DHT22;12242;50.952;4.678;2024-01-30T06:00:09;11.10;99.90
24035;DHT22;12242;50.952;4.678;2024-01-30T06:02:36;11.10;99.90
24035;DHT22;12242;50.952;4.678;2024-01-30T06:05:04;11.10;99.90
24035;DHT22;12242;50.952;4.678;2024-01-30T06:07:32;11.10;99.90
24035;DHT22;12242;50.952;4.678;2024-01-30T06:10:03;11.10;99.90
24035;DHT22;12242;50.952;4.678;2024-01-30T06:12:31;11.10;99.90
24035;DHT22;12242;50.952;4.678;2024-01-30T06:14:59;11.20;99.90
24035;DHT22;12242;50.952;4.678;2024-01-30T06:17:27;11.10;99.90
24035;DHT22;12242;50.952;4.678;2024-01-30T06:19:55;11.30;99.90
24035;DHT22;12242;50.952;4.678;2024-01-30T06:22:23;11.20;99.90
24035;DHT22;12242;50.952;4.678;2024-01-30T06:24:51;11.30;99.90
24035;DHT22;12242;50.952;4.678;2024-01-30T06:27:19;11.20;99.90
24035;DHT22;12242;50.952;4.678;2024-01-30T06:29:46;11.30;99.90
24035;DHT22;12242;50.952;4.678;2024-01-30T06:32:14;11.40;99.90
24035;DHT22;12242;50.952;4.678;2024-01-30T06:34:44;11.50;99.90
24035;DHT22;12242;50.952;4.678;2024-01-30T06:37:16;11.40;99.90
24035;DHT22;12242;50.952;4.678;2024-01-30T06:39:44;11.40;99.90
24035;DHT22;12242;50.952;4.678;2024-01-30T06:42:11;11.50;99.90
24035;DHT22;12242;50.952;4.678;2024-01-30T06:44:39;11.50;99.90
24035;DHT22;12242;50.952;4.678;2024-01-30T06:47:06;11.40;99.90
24035;DHT22;12242;50.952;4.678;2024-01-30T06:49:34;11.40;99.90
24035;DHT22;12242;50.952;4.678;2024-01-30T06:52:02;11.50;99.90
24035;DHT22;12242;50.952;4.678;2024-01-30T06:54:30;11.50;99.90
24035;DHT22;12242;50.952;4.678;2024-01-30T06:56:57;11.50;99.90
24035;DHT22;12242;50.952;4.678;2024-01-30T06:59:25;11.40;99.90
24035;DHT22;12242;50.952;4.678;2024-01-30T07:01:55;11.30;99.90
24035;DHT22;12242;50.952;4.678;2024-01-30T07:04:23;11.30;99.90
24035;DHT22;12242;50.952;4.678;2024-01-30T07:06:51;11.30;99.90
24035;DHT22;12242;50.952;4.678;2024-01-30T07:09:20;11.40;99.90
24035;DHT22;12242;50.952;4.678;2024-01-30T07:11:48;11.50;99.90
24035;DHT22;12242;50.952;4.678;2024-01-30T07:14:18;11.40;99.90
24035;DHT22;12242;50.952;4.678;2024-01-30T07:16:46;11.40;99.90
24035;DHT22;12242;50.952;4.678;2024-01-30T07:19:14;11.50;99.90
24035;DHT22;12242;50.952;4.678;2024-01-30T07:21:42;11.50;99.90
24035;DHT22;12242;50.952;4.678;2024-01-30T07:24:09;11.60;99.90
24035;DHT22;12242;50.952;4.678;2024-01-30T07:26:37;11.60;99.90
24035;DHT22;12242;50.952;4.678;2024-01-30T07:29:05;11.50;99.90
24035;DHT22;12242;50.952;4.678;2024-01-30T07:31:32;11.60;99.90
24035;DHT22;12242;50.952;4.678;2024-01-30T07:34:00;11.50;99.90
24035;DHT22;12242;50.952;4.678;2024-01-30T07:36:28;11.40;99.90
24035;DHT22;12242;50.952;4.678;2024-01-30T07:38:56;11.40;99.90
24035;DHT22;12242;50.952;4.678;2024-01-30T07:41:24;11.30;99.90
24035;DHT22;12242;50.952;4.678;2024-01-30T07:43:52;11.40;99.90
24035;DHT22;12242;50.952;4.678;2024-01-30T07:46:21;11.60;99.90
24035;DHT22;12242;50.952;4.678;2024-01-30T07:48:48;11.70;99.90
24035;DHT22;12242;50.952;4.678;2024-01-30T07:51:20;11.80;99.90
24035;DHT22;12242;50.952;4.678;2024-01-30T07:53:51;11.80;99.90
24035;DHT22;12242;50.952;4.678;2024-01-30T07:56:19;11.90;99.90
24035;DHT22;12242;50.952;4.678;2024-01-30T07:58:47;12.00;99.90
24035;DHT22;12242;50.952;4.678;2024-01-30T08:01:15;12.20;99.90
24035;DHT22;12242;50.952;4.678;2024-01-30T08:03:46;12.20;99.90
24035;DHT22;12242;50.952;4.678;2024-01-30T08:06:13;12.30;99.90
24035;DHT22;12242;50.952;4.678;2024-01-30T08:08:43;12.40;99.90
24035;DHT22;12242;50.952;4.678;2024-01-30T08:11:12;12.40;99.90
24035;DHT22;12242;50.952;4.678;2024-01-30T08:13:40;12.40;99.90
24035;DHT22;12242;50.952;4.678;2024-01-30T08:16:08;12.40;99.90
24035;DHT22;12242;50.952;4.678;2024-01-30T08:18:40;12.40;99.90
24035;DHT22;12242;50.952;4.678;2024-01-30T08:21:08;12.50;99.90
24035;DHT22;12242;50.952;4.678;2024-01-30T08:23:38;12.50;99.90
24035;DHT22;12242;50.952;4.678;2024-01-30T08:26:07;12.50;99.90
24035;DHT22;12242;50.952;4.678;2024-01-30T08:28:34;12.60;99.90
24035;DHT22;12242;50.952;4.678;2024-01-30T08:31:02;12.40;99.90
24035;DHT22;12242;50.952;4.678;2024-01-30T08:33:30;12.40;99.90
24035;DHT22;12242;50.952;4.678;2024-01-30T08:35:58;12.40;99.90
24035;DHT22;12242;50.952;4.678;2024-01-30T08:38:26;12.50;99.90
24035;DHT22;12242;50.952;4.678;2024-01-30T08:40:55;12.60;99.90
24035;DHT22;12242;50.952;4.678;2024-01-30T08:43:24;12.60;99.90
24035;DHT22;12242;50.952;4.678;2024-01-30T08:45:54;12.60;99.90
24035;DHT22;12242;50.952;4.678;2024-01-30T08:48:22;12.60;99.90
24035;DHT22;12242;50.952;4.678;2024-01-30T08:50:50;12.60;99.90
24035;DHT22;12242;50.952;4.678;2024-01-30T08:53:18;12.70;99.90
24035;DHT22;12242;50.952;4.678;2024-01-30T08:55:48;12.70;99.90
24035;DHT22;12242;50.952;4.678;2024-01-30T08:58:16;12.80;99.90
24035;DHT22;12242;50.952;4.678;2024-01-30T09:00:46;12.90;99.90
24035;DHT22;12242;50.952;4.678;2024-01-30T09:03:14;13.00;99.90
24035;DHT22;12242;50.952;4.678;2024-01-30T09:05:42;13.10;99.90
24035;DHT22;12242;50.952;4.678;2024-01-30T09:08:10;13.10;99.90
24035;DHT22;12242;50.952;4.678;2024-01-30T09:10:37;13.30;99.90
24035;DHT22;12242;50.952;4.678;2024-01-30T09:13:05;13.30;99.90
24035;DHT22;12242;50.952;4.678;2024-01-30T09:15:35;13.30;99.90
24035;DHT22;12242;50.952;4.678;2024-01-30T09:18:05;13.30;99.90
24035;DHT22;12242;50.952;4.678;2024-01-30T09:20:33;13.30;99.90
24035;DHT22;12242;50.952;4.678;2024-01-30T09:23:04;13.30;99.90
24035;DHT22;12242;50.952;4.678;2024-01-30T09:25:31;13.20;99.90
24035;DHT22;12242;50.952;4.678;2024-01-30T09:27:59;13.20;99.90
24035;DHT22;12242;50.952;4.678;2024-01-30T09:30:26;13.20;99.90
24035;DHT22;12242;50.952;4.678;2024-01-30T09:32:57;13.10;99.90
24035;DHT22;12242;50.952;4.678;2024-01-30T09:35:28;13.20;99.90
24035;DHT22;12242;50.952;4.678;2024-01-30T09:37:57;13.20;99.90
24035;DHT22;12242;50.952;4.678;2024-01-30T09:40:25;13.20;99.90
24035;DHT22;12242;50.952;4.678;2024-01-30T09:42:54;13.30;99.90
24035;DHT22;12242;50.952;4.678;2024-01-30T09:45:26;13.20;99.90
24035;DHT22;12242;50.952;4.678;2024-01-30T09:47:53;13.10;99.90
24035;DHT22;12242;50.952;4.678;2024-01-30T09:50:22;13.20;99.90
24035;DHT22;12242;50.952;4.678;2024-01-30T09:52:49;13.30;99.90
24035;DHT22;12242;50.952;4.678;2024-01-30T09:55:19;13.50;99.90
24035;DHT22;12242;50.952;4.678;2024-01-30T09:57:46;13.60;99.90
24035;DHT22;12242;50.952;4.678;2024-01-30T10:00:14;13.60;99.90
24035;DHT22;12242;50.952;4.678;2024-01-30T10:02:42;13.80;99.90
24035;DHT22;12242;50.952;4.678;2024-01-30T10:05:11;13.80;99.90
24035;DHT22;12242;50.952;4.678;2024-01-30T10:07:53;13.80;99.90
24035;DHT22;12242;50.952;4.678;2024-01-30T10:10:25;13.60;99.90
24035;DHT22;12242;50.952;4.678;2024-01-30T10:12:53;13.50;99.90
24035;DHT22;12242;50.952;4.678;2024-01-30T10:15:21;13.60;99.90
24035;DHT22;12242;50.952;4.678;2024-01-30T10:17:49;13.70;99.90
24035;DHT22;12242;50.952;4.678;2024-01-30T10:20:17;13.70;99.90
24035;DHT22;12242;50.952;4.678;2024-01-30T10:22:46;13.70;99.90
24035;DHT22;12242;50.952;4.678;2024-01-30T10:25:17;13.60;99.90
24035;DHT22;12242;50.952;4.678;2024-01-30T10:27:55;13.50;99.90
24035;DHT22;12242;50.952;4.678;2024-01-30T10:30:23;13.50;99.90
24035;DHT22;12242;50.952;4.678;2024-01-30T10:32:51;13.50;99.90
24035;DHT22;12242;50.952;4.678;2024-01-30T10:35:19;13.40;99.90
24035;DHT22;12242;50.952;4.678;2024-01-30T10:37:47;13.40;99.90
24035;DHT22;12242;50.952;4.678;2024-01-30T10:40:16;13.30;99.90
24035;DHT22;12242;50.952;4.678;2024-01-30T10:42:45;13.20;99.90
24035;DHT22;12242;50.952;4.678;2024-01-30T10:45:14;13.30;99.90
24035;DHT22;12242;50.952;4.678;2024-01-30T10:47:49;13.20;99.90
24035;DHT22;12242;50.952;4.678;2024-01-30T10:50:17;13.20;99.90
24035;DHT22;12242;50.952;4.678;2024-01-30T10:52:46;13.20;99.90
24035;DHT22;12242;50.952;4.678;2024-01-30T10:55:16;13.20;99.90
24035;DHT22;12242;50.952;4.678;2024-01-30T10:57:45;13.20;99.90
24035;DHT22;12242;50.952;4.678;2024-01-30T11:00:14;13.20;99.90
24035;DHT22;12242;50.952;4.678;2024-01-30T11:02:45;13.20;99.90
24035;DHT22;12242;50.952;4.678;2024-01-30T11:05:13;13.10;99.90
24035;DHT22;12242;50.952;4.678;2024-01-30T11:07:43;13.10;99.90
24035;DHT22;12242;50.952;4.678;2024-01-30T11:10:12;13.00;99.90
24035;DHT22;12242;50.952;4.678;2024-01-30T11:12:43;13.10;99.90
24035;DHT22;12242;50.952;4.678;2024-01-30T11:15:18;13.20;99.90
24035;DHT22;12242;50.952;4.678;2024-01-30T11:20:27;13.10;99.90
24035;DHT22;12242;50.952;4.678;2024-01-30T11:22:56;12.90;99.90
24035;DHT22;12242;50.952;4.678;2024-01-30T11:25:25;12.90;99.90
24035;DHT22;12242;50.952;4.678;2024-01-30T11:27:54;12.90;99.90
24035;DHT22;12242;50.952;4.678;2024-01-30T11:30:23;13.00;99.90
24035;DHT22;12242;50.952;4.678;2024-01-30T11:38:03;12.90;99.90
24035;DHT22;12242;50.952;4.678;2024-01-30T11:40:32;12.90;99.90
24035;DHT22;12242;50.952;4.678;2024-01-30T11:43:02;12.80;99.90
24035;DHT22;12242;50.952;4.678;2024-01-30T11:45:33;12.70;99.90
24035;DHT22;12242;50.952;4.678;2024-01-30T11:48:01;12.70;99.90
24035;DHT22;12242;50.952;4.678;2024-01-30T11:50:35;12.70;99.90
24035;DHT22;12242;50.952;4.678;2024-01-30T11:53:06;12.50;99.90
24035;DHT22;12242;50.952;4.678;2024-01-30T11:55:34;12.40;99.90
24035;DHT22;12242;50.952;4.678;2024-01-30T11:58:04;12.40;99.90
24035;DHT22;12242;50.952;4.678;2024-01-30T12:00:34;12.50;99.90
24035;DHT22;12242;50.952;4.678;2024-01-30T12:03:03;12.70;99.90
24035;DHT22;12242;50.952;4.678;2024-01-30T12:05:33;12.70;99.90
24035;DHT22;12242;50.952;4.678;2024-01-30T12:08:01;12.60;99.90
24035;DHT22;12242;50.952;4.678;2024-01-30T12:10:30;12.70;99.90
24035;DHT22;12242;50.952;4.678;2024-01-30T12:12:58;12.70;99.90
24035;DHT22;12242;50.952;4.678;2024-01-30T12:15:26;12.90;99.90
24035;DHT22;12242;50.952;4.678;2024-01-30T12:18:04;13.00;99.90
24035;DHT22;12242;50.952;4.678;2024-01-30T12:20:34;13.10;99.90
24035;DHT22;12242;50.952;4.678;2024-01-30T12:23:03;13.10;99.90
24035;DHT22;12242;50.952;4.678;2024-01-30T12:25:31;13.60;99.90
24035;DHT22;12242;50.952;4.678;2024-01-30T12:28:02;13.70;99.90
24035;DHT22;12242;50.952;4.678;2024-01-30T12:30:36;13.70;99.90
24035;DHT22;12242;50.952;4.678;2024-01-30T12:33:04;13.60;99.90
24035;DHT22;12242;50.952;4.678;2024-01-30T12:35:35;13.20;99.90
24035;DHT22;12242;50.952;4.678;2024-01-30T12:38:12;13.00;99.90
24035;DHT22;12242;50.952;4.678;2024-01-30T12:40:42;13.00;99.90
24035;DHT22;12242;50.952;4.678;2024-01-30T12:43:11;12.70;99.90
24035;DHT22;12242;50.952;4.678;2024-01-30T12:45:53;12.60;99.90
24035;DHT22;12242;50.952;4.678;2024-01-30T12:48:20;12.30;99.90
24035;DHT22;12242;50.952;4.678;2024-01-30T12:50:48;12.30;99.90
24035;DHT22;12242;50.952;4.678;2024-01-30T12:53:16;12.20;99.90
24035;DHT22;12242;50.952;4.678;2024-01-30T12:55:43;12.30;99.90
24035;DHT22;12242;50.952;4.678;2024-01-30T12:58:11;12.10;99.90
24035;DHT22;12242;50.952;4.678;2024-01-30T13:00:38;12.10;99.90
24035;DHT22;12242;50.952;4.678;2024-01-30T13:03:06;12.40;99.90
24035;DHT22;12242;50.952;4.678;2024-01-30T13:05:34;12.70;99.90
24035;DHT22;12242;50.952;4.678;2024-01-30T13:08:04;13.10;99.90
24035;DHT22;12242;50.952;4.678;2024-01-30T13:10:32;13.10;99.90
24035;DHT22;12242;50.952;4.678;2024-01-30T13:13:00;13.20;99.90
24035;DHT22;12242;50.952;4.678;2024-01-30T13:15:28;13.10;99.90
24035;DHT22;12242;50.952;4.678;2024-01-30T13:17:55;13.10;99.90
24035;DHT22;12242;50.952;4.678;2024-01-30T13:20:23;13.20;99.90
24035;DHT22;12242;50.952;4.678;2024-01-30T13:22:51;13.10;99.90
24035;DHT22;12242;50.952;4.678;2024-01-30T13:25:19;13.20;99.90
24035;DHT22;12242;50.952;4.678;2024-01-30T13:27:46;13.10;99.90
24035;DHT22;12242;50.952;4.678;2024-01-30T13:30:17;12.70;99.90
24035;DHT22;12242;50.952;4.678;2024-01-30T13:32:46;12.40;99.90
24035;DHT22;12242;50.952;4.678;2024-01-30T13:35:13;12.10;99.90
24035;DHT22;12242;50.952;4.678;2024-01-30T13:37:41;12.00;99.90
24035;DHT22;12242;50.952;4.678;2024-01-30T13:40:09;11.90;99.90
24035;DHT22;12242;50.952;4.678;2024-01-30T13:42:40;11.80;99.90
24035;DHT22;12242;50.952;4.678;2024-01-30T13:45:08;11.60;99.90
24035;DHT22;12242;50.952;4.678;2024-01-30T13:47:38;11.70;99.90
24035;DHT22;12242;50.952;4.678;2024-01-30T13:50:06;11.70;99.90
24035;DHT22;12242;50.952;4.678;2024-01-30T13:52:35;11.80;99.90
24035;DHT22;12242;50.952;4.678;2024-01-30T13:55:11;11.90;99.90
24035;DHT22;12242;50.952;4.678;2024-01-30T13:57:40;11.90;99.90
24035;DHT22;12242;50.952;4.678;2024-01-30T14:00:09;11.90;99.90
24035;DHT22;12242;50.952;4.678;2024-01-30T14:02:39;11.80;99.90
24035;DHT22;12242;50.952;4.678;2024-01-30T14:05:07;11.80;99.90
24035;DHT22;12242;50.952;4.678;2024-01-30T14:07:36;11.90;99.90
24035;DHT22;12242;50.952;4.678;2024-01-30T14:10:05;12.10;99.90
24035;DHT22;12242;50.952;4.678;2024-01-30T14:12:39;12.10;99.90
24035;DHT22;12242;50.952;4.678;2024-01-30T14:15:08;12.30;99.90
24035;DHT22;12242;50.952;4.678;2024-01-30T14:17:53;12.50;99.90
24035;DHT22;12242;50.952;4.678;2024-01-30T14:20:22;12.70;99.90
24035;DHT22;12242;50.952;4.678;2024-01-30T14:22:49;12.80;99.90
24035;DHT22;12242;50.952;4.678;2024-01-30T14:25:17;12.70;99.90
24035;DHT22;12242;50.952;4.678;2024-01-30T14:27:45;12.40;99.90
24035;DHT22;12242;50.952;4.678;2024-01-30T14:30:13;12.30;99.90
24035;DHT22;12242;50.952;4.678;2024-01-30T14:32:40;12.30;99.90
24035;DHT22;12242;50.952;4.678;2024-01-30T14:35:10;11.90;99.90
24035;DHT22;12242;50.952;4.678;2024-01-30T14:37:38;11.80;99.90
24035;DHT22;12242;50.952;4.678;2024-01-30T14:40:06;11.70;99.90
24035;DHT22;12242;50.952;4.678;2024-01-30T14:42:34;11.70;99.90
24035;DHT22;12242;50.952;4.678;2024-01-30T14:45:05;11.60;99.90
24035;DHT22;12242;50.952;4.678;2024-01-30T14:47:34;11.40;99.90
24035;DHT22;12242;50.952;4.678;2024-01-30T14:50:03;11.50;99.90
24035;DHT22;12242;50.952;4.678;2024-01-30T14:52:35;11.40;99.90
24035;DHT22;12242;50.952;4.678;2024-01-30T14:55:06;11.50;99.90
24035;DHT22;12242;50.952;4.678;2024-01-30T14:57:34;11.50;99.90
24035;DHT22;12242;50.952;4.678;2024-01-30T15:00:02;11.70;99.90
24035;DHT22;12242;50.952;4.678;2024-01-30T15:02:30;11.60;99.90
24035;DHT22;12242;50.952;4.678;2024-01-30T15:04:58;11.60;99.90
24035;DHT22;12242;50.952;4.678;2024-01-30T15:07:27;11.50;99.90
24035;DHT22;12242;50.952;4.678;2024-01-30T15:10:08;11.30;99.90
24035;DHT22;12242;50.952;4.678;2024-01-30T15:12:37;11.20;99.90
24035;DHT22;12242;50.952;4.678;2024-01-30T15:15:07;11.00;99.90
24035;DHT22;12242;50.952;4.678;2024-01-30T15:17:40;10.90;99.90
24035;DHT22;12242;50.952;4.678;2024-01-30T15:20:08;10.70;99.90
24035;DHT22;12242;50.952;4.678;2024-01-30T15:22:37;10.60;99.90
24035;DHT22;12242;50.952;4.678;2024-01-30T15:25:05;10.70;99.90
24035;DHT22;12242;50.952;4.678;2024-01-30T15:27:33;10.70;99.90
24035;DHT22;12242;50.952;4.678;2024-01-30T15:30:01;10.80;99.90
24035;DHT22;12242;50.952;4.678;2024-01-30T15:32:29;10.80;99.90
24035;DHT22;12242;50.952;4.678;2024-01-30T15:34:56;10.80;99.90
24035;DHT22;12242;50.952;4.678;2024-01-30T15:37:28;10.80;99.90
24035;DHT22;12242;50.952;4.678;2024-01-30T15:39:56;11.00;99.90
24035;DHT22;12242;50.952;4.678;2024-01-30T15:42:23;10.80;99.90
24035;DHT22;12242;50.952;4.678;2024-01-30T15:44:51;10.50;99.90
24035;DHT22;12242;50.952;4.678;2024-01-30T15:47:18;10.30;99.90
24035;DHT22;12242;50.952;4.678;2024-01-30T15:49:46;10.40;99.90